sensor_id;sensor_type;location;lat;lon;timestamp;P1;durP1;ratioP1;P2;durP2;ratioP2
2940;SDS011;1480;51.456;6.670;2023-02-28T00:00:07;5.23;;;4.73;;
2940;SDS011;1480;51.456;6.670;2023-02-28T00:02:35;7.03;;;4.93;;
2940;SDS011;1480;51.456;6.670;2023-02-28T00:05:02;7.20;;;5.60;;
2940;SDS011;1480;51.456;6.670;2023-02-28T00:07:29;9.03;;;5.30;;
2940;SDS011;1480;51.456;6.670;2023-02-28T00:09:57;7.03;;;5.23;;
2940;SDS011;1480;51.456;6.670;2023-02-28T00:12:25;9.03;;;5.43;;
2940;SDS011;1480;51.456;6.670;2023-02-28T00:14:52;9.00;;;5.10;;
2940;SDS011;1480;51.456;6.670;2023-02-28T00:17:18;5.87;;;4.43;;
2940;SDS011;1480;51.456;6.670;2023-02-28T00:19:46;10.60;;;5.37;;
2940;SDS011;1480;51.456;6.670;2023-02-28T00:22:13;9.13;;;5.30;;
2940;SDS011;1480;51.456;6.670;2023-02-28T00:24:40;7.77;;;5.40;;
2940;SDS011;1480;51.456;6.670;2023-02-28T00:27:08;8.40;;;5.47;;
2940;SDS011;1480;51.456;6.670;2023-02-28T00:29:36;5.60;;;5.00;;
2940;SDS011;1480;51.456;6.670;2023-02-28T00:32:03;6.67;;;5.53;;
2940;SDS011;1480;51.456;6.670;2023-02-28T00:34:30;9.50;;;6.10;;
2940;SDS011;1480;51.456;6.670;2023-02-28T00:37:03;8.37;;;5.60;;
2940;SDS011;1480;51.456;6.670;2023-02-28T00:39:33;7.70;;;5.23;;
2940;SDS011;1480;51.456;6.670;2023-02-28T00:42:00;8.03;;;5.90;;
2940;SDS011;1480;51.456;6.670;2023-02-28T00:44:28;8.50;;;6.13;;
2940;SDS011;1480;51.456;6.670;2023-02-28T00:46:55;13.17;;;9.73;;
2940;SDS011;1480;51.456;6.670;2023-02-28T00:49:23;11.53;;;6.93;;
2940;SDS011;1480;51.456;6.670;2023-02-28T00:51:51;18.00;;;8.33;;
2940;SDS011;1480;51.456;6.670;2023-02-28T00:54:18;12.80;;;7.60;;
2940;SDS011;1480;51.456;6.670;2023-02-28T00:56:46;8.90;;;6.67;;
2940;SDS011;1480;51.456;6.670;2023-02-28T00:59:13;9.70;;;6.83;;
2940;SDS011;1480;51.456;6.670;2023-02-28T01:01:42;16.93;;;8.73;;
2940;SDS011;1480;51.456;6.670;2023-02-28T01:04:09;16.83;;;8.57;;
2940;SDS011;1480;51.456;6.670;2023-02-28T01:06:36;11.70;;;7.03;;
2940;SDS011;1480;51.456;6.670;2023-02-28T01:09:03;14.43;;;8.80;;
2940;SDS011;1480;51.456;6.670;2023-02-28T01:11:31;9.97;;;6.70;;
2940;SDS011;1480;51.456;6.670;2023-02-28T01:13:58;8.77;;;6.00;;
2940;SDS011;1480;51.456;6.670;2023-02-28T01:16:25;12.93;;;8.70;;
2940;SDS011;1480;51.456;6.670;2023-02-28T01:18:53;10.60;;;6.23;;
2940;SDS011;1480;51.456;6.670;2023-02-28T01:21:21;15.00;;;10.17;;
2940;SDS011;1480;51.456;6.670;2023-02-28T01:23:48;9.37;;;6.53;;
2940;SDS011;1480;51.456;6.670;2023-02-28T01:26:15;10.07;;;5.77;;
2940;SDS011;1480;51.456;6.670;2023-02-28T01:28:43;10.37;;;5.33;;
2940;SDS011;1480;51.456;6.670;2023-02-28T01:31:10;9.63;;;5.70;;
2940;SDS011;1480;51.456;6.670;2023-02-28T01:33:37;6.30;;;4.87;;
2940;SDS011;1480;51.456;6.670;2023-02-28T01:36:08;7.07;;;5.07;;
2940;SDS011;1480;51.456;6.670;2023-02-28T01:38:36;10.40;;;5.80;;
2940;SDS011;1480;51.456;6.670;2023-02-28T01:41:03;5.20;;;4.20;;
2940;SDS011;1480;51.456;6.670;2023-02-28T01:43:32;5.73;;;4.17;;
2940;SDS011;1480;51.456;6.670;2023-02-28T01:46:19;8.40;;;4.20;;
2940;SDS011;1480;51.456;6.670;2023-02-28T01:48:47;6.93;;;5.20;;
2940;SDS011;1480;51.456;6.670;2023-02-28T01:51:18;6.20;;;3.73;;
2940;SDS011;1480;51.456;6.670;2023-02-28T01:53:49;6.30;;;4.93;;
2940;SDS011;1480;51.456;6.670;2023-02-28T01:56:20;6.20;;;5.33;;
2940;SDS011;1480;51.456;6.670;2023-02-28T01:58:50;8.43;;;4.70;;
2940;SDS011;1480;51.456;6.670;2023-02-28T02:01:19;8.73;;;5.50;;
2940;SDS011;1480;51.456;6.670;2023-02-28T02:03:47;5.03;;;3.73;;
2940;SDS011;1480;51.456;6.670;2023-02-28T02:06:21;7.20;;;4.90;;
2940;SDS011;1480;51.456;6.670;2023-02-28T02:08:49;6.13;;;4.27;;
2940;SDS011;1480;51.456;6.670;2023-02-28T02:11:17;6.10;;;4.30;;
2940;SDS011;1480;51.456;6.670;2023-02-28T02:13:58;5.13;;;4.13;;
2940;SDS011;1480;51.456;6.670;2023-02-28T02:16:48;6.17;;;4.03;;
2940;SDS011;1480;51.456;6.670;2023-02-28T02:19:32;6.50;;;3.97;;
2940;SDS011;1480;51.456;6.670;2023-02-28T02:25:06;4.57;;;3.60;;
2940;SDS011;1480;51.456;6.670;2023-02-28T02:27:48;6.57;;;3.60;;
2940;SDS011;1480;51.456;6.670;2023-02-28T02:30:37;7.83;;;5.37;;
2940;SDS011;1480;51.456;6.670;2023-02-28T02:33:25;7.40;;;4.40;;
2940;SDS011;1480;51.456;6.670;2023-02-28T02:36:12;5.20;;;3.97;;
2940;SDS011;1480;51.456;6.670;2023-02-28T02:38:45;5.40;;;4.07;;
2940;SDS011;1480;51.456;6.670;2023-02-28T02:41:16;4.47;;;3.40;;
2940;SDS011;1480;51.456;6.670;2023-02-28T02:43:46;9.97;;;5.73;;
2940;SDS011;1480;51.456;6.670;2023-02-28T02:46:17;8.83;;;5.20;;
2940;SDS011;1480;51.456;6.670;2023-02-28T02:48:45;12.83;;;5.63;;
2940;SDS011;1480;51.456;6.670;2023-02-28T02:51:15;8.40;;;5.47;;
2940;SDS011;1480;51.456;6.670;2023-02-28T02:53:45;6.93;;;4.17;;
2940;SDS011;1480;51.456;6.670;2023-02-28T02:56:15;9.00;;;5.20;;
2940;SDS011;1480;51.456;6.670;2023-02-28T02:58:44;6.67;;;5.03;;
2940;SDS011;1480;51.456;6.670;2023-02-28T03:01:14;5.27;;;3.80;;
2940;SDS011;1480;51.456;6.670;2023-02-28T03:03:50;4.87;;;3.67;;
2940;SDS011;1480;51.456;6.670;2023-02-28T03:06:18;5.73;;;4.60;;
2940;SDS011;1480;51.456;6.670;2023-02-28T03:08:46;6.80;;;3.60;;
2940;SDS011;1480;51.456;6.670;2023-02-28T03:11:14;3.87;;;3.40;;
2940;SDS011;1480;51.456;6.670;2023-02-28T03:13:52;6.17;;;4.23;;
2940;SDS011;1480;51.456;6.670;2023-02-28T03:16:36;6.20;;;3.57;;
2940;SDS011;1480;51.456;6.670;2023-02-28T03:19:16;5.93;;;4.03;;
2940;SDS011;1480;51.456;6.670;2023-02-28T03:22:04;6.20;;;4.30;;
2940;SDS011;1480;51.456;6.670;2023-02-28T03:24:39;7.20;;;4.30;;
2940;SDS011;1480;51.456;6.670;2023-02-28T03:27:11;4.60;;;4.10;;
2940;SDS011;1480;51.456;6.670;2023-02-28T03:29:43;8.37;;;4.93;;
2940;SDS011;1480;51.456;6.670;2023-02-28T03:32:13;7.73;;;4.87;;
2940;SDS011;1480;51.456;6.670;2023-02-28T03:34:47;7.07;;;4.43;;
2940;SDS011;1480;51.456;6.670;2023-02-28T03:37:19;6.33;;;3.90;;
2940;SDS011;1480;51.456;6.670;2023-02-28T03:39:49;6.97;;;4.53;;
2940;SDS011;1480;51.456;6.670;2023-02-28T03:42:19;6.33;;;5.03;;
2940;SDS011;1480;51.456;6.670;2023-02-28T03:44:49;7.20;;;4.23;;
2940;SDS011;1480;51.456;6.670;2023-02-28T03:47:20;5.27;;;4.30;;
2940;SDS011;1480;51.456;6.670;2023-02-28T03:49:50;6.80;;;4.20;;
2940;SDS011;1480;51.456;6.670;2023-02-28T03:52:22;5.20;;;4.60;;
2940;SDS011;1480;51.456;6.670;2023-02-28T03:54:53;5.33;;;3.90;;
2940;SDS011;1480;51.456;6.670;2023-02-28T03:57:24;5.73;;;4.70;;
2940;SDS011;1480;51.456;6.670;2023-02-28T03:59:56;6.47;;;4.83;;
2940;SDS011;1480;51.456;6.670;2023-02-28T04:02:23;6.97;;;3.30;;
2940;SDS011;1480;51.456;6.670;2023-02-28T04:04:50;6.07;;;4.27;;
2940;SDS011;1480;51.456;6.670;2023-02-28T04:07:17;6.37;;;3.80;;
2940;SDS011;1480;51.456;6.670;2023-02-28T04:09:45;5.43;;;3.87;;
2940;SDS011;1480;51.456;6.670;2023-02-28T04:12:12;4.33;;;2.70;;
2940;SDS011;1480;51.456;6.670;2023-02-28T04:14:38;5.90;;;4.07;;
2940;SDS011;1480;51.456;6.670;2023-02-28T04:17:05;7.60;;;4.00;;
2940;SDS011;1480;51.456;6.670;2023-02-28T04:19:32;5.37;;;3.60;;
2940;SDS011;1480;51.456;6.670;2023-02-28T04:21:59;3.60;;;2.83;;
2940;SDS011;1480;51.456;6.670;2023-02-28T04:24:26;6.00;;;3.73;;
2940;SDS011;1480;51.456;6.670;2023-02-28T04:26:55;5.53;;;3.97;;
2940;SDS011;1480;51.456;6.670;2023-02-28T04:29:23;5.63;;;3.60;;
2940;SDS011;1480;51.456;6.670;2023-02-28T04:31:51;4.97;;;3.70;;
2940;SDS011;1480;51.456;6.670;2023-02-28T04:34:18;4.90;;;3.20;;
2940;SDS011;1480;51.456;6.670;2023-02-28T04:36:46;5.83;;;3.80;;
2940;SDS011;1480;51.456;6.670;2023-02-28T04:39:14;3.97;;;3.40;;
2940;SDS011;1480;51.456;6.670;2023-02-28T04:41:40;4.87;;;3.20;;
2940;SDS011;1480;51.456;6.670;2023-02-28T04:44:08;4.87;;;3.20;;
2940;SDS011;1480;51.456;6.670;2023-02-28T04:46:35;3.87;;;2.80;;
2940;SDS011;1480;51.456;6.670;2023-02-28T04:49:02;3.83;;;2.67;;
2940;SDS011;1480;51.456;6.670;2023-02-28T04:51:29;7.60;;;3.20;;
2940;SDS011;1480;51.456;6.670;2023-02-28T04:53:56;5.00;;;3.53;;
2940;SDS011;1480;51.456;6.670;2023-02-28T04:56:22;3.40;;;3.07;;
2940;SDS011;1480;51.456;6.670;2023-02-28T04:58:49;5.13;;;2.80;;
2940;SDS011;1480;51.456;6.670;2023-02-28T05:01:21;4.97;;;3.37;;
2940;SDS011;1480;51.456;6.670;2023-02-28T05:03:49;7.07;;;3.83;;
2940;SDS011;1480;51.456;6.670;2023-02-28T05:06:16;5.07;;;3.77;;
2940;SDS011;1480;51.456;6.670;2023-02-28T05:08:43;3.97;;;2.70;;
2940;SDS011;1480;51.456;6.670;2023-02-28T05:11:13;4.77;;;3.63;;
2940;SDS011;1480;51.456;6.670;2023-02-28T05:13:41;3.90;;;3.17;;
2940;SDS011;1480;51.456;6.670;2023-02-28T05:16:08;5.20;;;2.93;;
2940;SDS011;1480;51.456;6.670;2023-02-28T05:18:36;6.93;;;3.70;;
2940;SDS011;1480;51.456;6.670;2023-02-28T05:21:03;5.63;;;3.63;;
2940;SDS011;1480;51.456;6.670;2023-02-28T05:23:30;4.87;;;4.30;;
2940;SDS011;1480;51.456;6.670;2023-02-28T05:25:57;3.47;;;3.07;;
2940;SDS011;1480;51.456;6.670;2023-02-28T05:28:23;6.33;;;4.00;;
2940;SDS011;1480;51.456;6.670;2023-02-28T05:30:50;7.43;;;3.87;;
2940;SDS011;1480;51.456;6.670;2023-02-28T05:33:17;5.10;;;3.70;;
2940;SDS011;1480;51.456;6.670;2023-02-28T05:35:44;4.27;;;3.77;;
2940;SDS011;1480;51.456;6.670;2023-02-28T05:38:11;5.13;;;3.60;;
2940;SDS011;1480;51.456;6.670;2023-02-28T05:40:38;4.57;;;3.50;;
2940;SDS011;1480;51.456;6.670;2023-02-28T05:43:05;6.40;;;3.40;;
2940;SDS011;1480;51.456;6.670;2023-02-28T05:45:31;7.10;;;3.50;;
2940;SDS011;1480;51.456;6.670;2023-02-28T05:47:58;4.20;;;3.03;;
2940;SDS011;1480;51.456;6.670;2023-02-28T05:50:25;7.30;;;3.80;;
2940;SDS011;1480;51.456;6.670;2023-02-28T05:52:53;5.03;;;3.37;;
2940;SDS011;1480;51.456;6.670;2023-02-28T05:55:19;4.80;;;3.10;;
2940;SDS011;1480;51.456;6.670;2023-02-28T05:57:46;5.67;;;3.37;;
2940;SDS011;1480;51.456;6.670;2023-02-28T06:00:13;4.13;;;3.40;;
2940;SDS011;1480;51.456;6.670;2023-02-28T06:02:42;5.00;;;3.17;;
2940;SDS011;1480;51.456;6.670;2023-02-28T06:05:10;9.03;;;4.33;;
2940;SDS011;1480;51.456;6.670;2023-02-28T06:07:40;5.40;;;3.23;;
2940;SDS011;1480;51.456;6.670;2023-02-28T06:10:08;4.43;;;3.07;;
2940;SDS011;1480;51.456;6.670;2023-02-28T06:12:36;10.13;;;3.20;;
2940;SDS011;1480;51.456;6.670;2023-02-28T06:15:03;4.73;;;3.20;;
2940;SDS011;1480;51.456;6.670;2023-02-28T06:17:30;4.63;;;3.10;;
2940;SDS011;1480;51.456;6.670;2023-02-28T06:19:57;8.40;;;3.90;;
2940;SDS011;1480;51.456;6.670;2023-02-28T06:22:24;4.20;;;3.57;;
2940;SDS011;1480;51.456;6.670;2023-02-28T06:24:50;4.90;;;3.87;;
2940;SDS011;1480;51.456;6.670;2023-02-28T06:27:19;4.80;;;3.33;;
2940;SDS011;1480;51.456;6.670;2023-02-28T06:29:45;4.23;;;3.07;;
2940;SDS011;1480;51.456;6.670;2023-02-28T06:32:12;3.97;;;3.10;;
2940;SDS011;1480;51.456;6.670;2023-02-28T06:34:39;5.87;;;3.93;;
2940;SDS011;1480;51.456;6.670;2023-02-28T06:37:05;4.50;;;3.60;;
2940;SDS011;1480;51.456;6.670;2023-02-28T06:39:32;3.80;;;3.40;;
2940;SDS011;1480;51.456;6.670;2023-02-28T06:41:59;6.33;;;3.03;;
2940;SDS011;1480;51.456;6.670;2023-02-28T06:44:27;5.60;;;3.43;;
2940;SDS011;1480;51.456;6.670;2023-02-28T06:47:00;5.60;;;3.40;;
2940;SDS011;1480;51.456;6.670;2023-02-28T06:49:28;4.40;;;3.47;;
2940;SDS011;1480;51.456;6.670;2023-02-28T06:51:55;6.53;;;3.70;;
2940;SDS011;1480;51.456;6.670;2023-02-28T06:54:21;8.37;;;3.60;;
2940;SDS011;1480;51.456;6.670;2023-02-28T06:56:48;4.93;;;3.80;;
2940;SDS011;1480;51.456;6.670;2023-02-28T06:59:15;8.33;;;3.80;;
2940;SDS011;1480;51.456;6.670;2023-02-28T07:01:43;6.33;;;3.43;;
2940;SDS011;1480;51.456;6.670;2023-02-28T07:04:10;9.00;;;4.70;;
2940;SDS011;1480;51.456;6.670;2023-02-28T07:06:38;4.97;;;3.60;;
2940;SDS011;1480;51.456;6.670;2023-02-28T07:09:05;5.10;;;3.60;;
2940;SDS011;1480;51.456;6.670;2023-02-28T07:11:32;5.27;;;3.93;;
2940;SDS011;1480;51.456;6.670;2023-02-28T07:13:59;5.83;;;3.43;;
2940;SDS011;1480;51.456;6.670;2023-02-28T07:16:25;6.80;;;4.40;;
2940;SDS011;1480;51.456;6.670;2023-02-28T07:18:53;4.70;;;3.80;;
2940;SDS011;1480;51.456;6.670;2023-02-28T07:21:20;6.40;;;3.90;;
2940;SDS011;1480;51.456;6.670;2023-02-28T07:23:47;9.27;;;4.57;;
2940;SDS011;1480;51.456;6.670;2023-02-28T07:26:15;7.73;;;3.87;;
2940;SDS011;1480;51.456;6.670;2023-02-28T07:28:43;5.10;;;4.07;;
2940;SDS011;1480;51.456;6.670;2023-02-28T07:31:11;5.23;;;3.77;;
2940;SDS011;1480;51.456;6.670;2023-02-28T07:33:39;7.10;;;3.93;;
2940;SDS011;1480;51.456;6.670;2023-02-28T07:36:08;8.60;;;4.10;;
2940;SDS011;1480;51.456;6.670;2023-02-28T07:38:39;6.27;;;3.90;;
2940;SDS011;1480;51.456;6.670;2023-02-28T07:41:05;6.30;;;3.40;;
2940;SDS011;1480;51.456;6.670;2023-02-28T07:43:33;8.90;;;4.73;;
2940;SDS011;1480;51.456;6.670;2023-02-28T07:46:03;10.50;;;4.60;;
2940;SDS011;1480;51.456;6.670;2023-02-28T07:48:31;5.10;;;3.80;;
2940;SDS011;1480;51.456;6.670;2023-02-28T07:50:59;4.50;;;3.90;;
2940;SDS011;1480;51.456;6.670;2023-02-28T07:53:27;7.10;;;4.03;;
2940;SDS011;1480;51.456;6.670;2023-02-28T07:55:54;6.90;;;4.30;;
2940;SDS011;1480;51.456;6.670;2023-02-28T07:58:22;7.40;;;4.50;;
2940;SDS011;1480;51.456;6.670;2023-02-28T08:00:49;7.20;;;3.70;;
2940;SDS011;1480;51.456;6.670;2023-02-28T08:03:16;5.77;;;3.83;;
2940;SDS011;1480;51.456;6.670;2023-02-28T08:05:43;10.40;;;3.93;;
2940;SDS011;1480;51.456;6.670;2023-02-28T08:08:09;7.03;;;3.87;;
2940;SDS011;1480;51.456;6.670;2023-02-28T08:10:37;6.33;;;4.43;;
2940;SDS011;1480;51.456;6.670;2023-02-28T08:13:04;5.33;;;4.00;;
2940;SDS011;1480;51.456;6.670;2023-02-28T08:15:31;11.17;;;3.83;;
2940;SDS011;1480;51.456;6.670;2023-02-28T08:17:57;9.50;;;4.30;;
2940;SDS011;1480;51.456;6.670;2023-02-28T08:20:24;5.00;;;3.67;;
2940;SDS011;1480;51.456;6.670;2023-02-28T08:22:51;8.80;;;4.20;;
2940;SDS011;1480;51.456;6.670;2023-02-28T08:25:18;6.63;;;4.30;;
2940;SDS011;1480;51.456;6.670;2023-02-28T08:27:47;8.43;;;4.40;;
2940;SDS011;1480;51.456;6.670;2023-02-28T08:30:14;6.70;;;4.13;;
2940;SDS011;1480;51.456;6.670;2023-02-28T08:32:41;5.57;;;4.03;;
2940;SDS011;1480;51.456;6.670;2023-02-28T08:35:08;5.87;;;4.43;;
2940;SDS011;1480;51.456;6.670;2023-02-28T08:37:35;7.53;;;4.50;;
2940;SDS011;1480;51.456;6.670;2023-02-28T08:40:02;8.30;;;3.40;;
2940;SDS011;1480;51.456;6.670;2023-02-28T08:42:30;5.57;;;3.37;;
2940;SDS011;1480;51.456;6.670;2023-02-28T08:44:58;10.67;;;4.30;;
2940;SDS011;1480;51.456;6.670;2023-02-28T08:47:25;7.70;;;3.73;;
2940;SDS011;1480;51.456;6.670;2023-02-28T08:49:51;7.17;;;3.73;;
2940;SDS011;1480;51.456;6.670;2023-02-28T08:52:18;4.53;;;3.13;;
2940;SDS011;1480;51.456;6.670;2023-02-28T08:54:44;5.00;;;3.90;;
2940;SDS011;1480;51.456;6.670;2023-02-28T08:57:11;4.10;;;3.30;;
2940;SDS011;1480;51.456;6.670;2023-02-28T08:59:38;5.57;;;3.70;;
2940;SDS011;1480;51.456;6.670;2023-02-28T09:02:07;7.40;;;4.50;;
2940;SDS011;1480;51.456;6.670;2023-02-28T09:04:35;5.43;;;3.40;;
2940;SDS011;1480;51.456;6.670;2023-02-28T09:07:01;6.60;;;3.43;;
2940;SDS011;1480;51.456;6.670;2023-02-28T09:09:28;5.13;;;3.00;;
2940;SDS011;1480;51.456;6.670;2023-02-28T09:11:55;6.27;;;3.10;;
2940;SDS011;1480;51.456;6.670;2023-02-28T09:14:22;9.33;;;4.50;;
2940;SDS011;1480;51.456;6.670;2023-02-28T09:16:48;6.13;;;3.90;;
2940;SDS011;1480;51.456;6.670;2023-02-28T09:19:16;5.73;;;3.03;;
2940;SDS011;1480;51.456;6.670;2023-02-28T09:21:43;4.20;;;2.70;;
2940;SDS011;1480;51.456;6.670;2023-02-28T09:24:10;4.00;;;2.80;;
2940;SDS011;1480;51.456;6.670;2023-02-28T09:26:39;7.50;;;3.10;;
2940;SDS011;1480;51.456;6.670;2023-02-28T09:29:06;7.17;;;4.60;;
2940;SDS011;1480;51.456;6.670;2023-02-28T09:31:33;5.97;;;3.30;;
2940;SDS011;1480;51.456;6.670;2023-02-28T09:33:59;3.93;;;2.97;;
2940;SDS011;1480;51.456;6.670;2023-02-28T09:36:27;6.50;;;3.00;;
2940;SDS011;1480;51.456;6.670;2023-02-28T09:38:55;3.03;;;2.00;;
2940;SDS011;1480;51.456;6.670;2023-02-28T09:41:22;6.33;;;3.00;;
2940;SDS011;1480;51.456;6.670;2023-02-28T09:43:51;3.53;;;2.90;;
2940;SDS011;1480;51.456;6.670;2023-02-28T09:46:25;6.73;;;2.90;;
2940;SDS011;1480;51.456;6.670;2023-02-28T09:48:54;3.17;;;2.20;;
2940;SDS011;1480;51.456;6.670;2023-02-28T09:51:34;5.07;;;2.80;;
2940;SDS011;1480;51.456;6.670;2023-02-28T09:54:09;4.23;;;2.27;;
2940;SDS011;1480;51.456;6.670;2023-02-28T09:56:38;3.97;;;2.60;;
2940;SDS011;1480;51.456;6.670;2023-02-28T09:59:09;2.77;;;1.70;;
2940;SDS011;1480;51.456;6.670;2023-02-28T10:01:42;2.40;;;1.83;;
2940;SDS011;1480;51.456;6.670;2023-02-28T10:04:15;4.77;;;2.20;;
2940;SDS011;1480;51.456;6.670;2023-02-28T10:06:46;4.60;;;3.47;;
2940;SDS011;1480;51.456;6.670;2023-02-28T10:09:16;5.03;;;3.20;;
2940;SDS011;1480;51.456;6.670;2023-02-28T10:11:45;3.77;;;2.93;;
2940;SDS011;1480;51.456;6.670;2023-02-28T10:14:14;3.77;;;2.13;;
2940;SDS011;1480;51.456;6.670;2023-02-28T10:16:43;4.10;;;2.23;;
2940;SDS011;1480;51.456;6.670;2023-02-28T10:19:17;4.47;;;1.90;;
2940;SDS011;1480;51.456;6.670;2023-02-28T10:21:49;3.67;;;2.00;;
2940;SDS011;1480;51.456;6.670;2023-02-28T10:24:21;3.73;;;1.70;;
2940;SDS011;1480;51.456;6.670;2023-02-28T10:26:56;2.30;;;1.70;;
2940;SDS011;1480;51.456;6.670;2023-02-28T10:29:25;3.40;;;2.10;;
2940;SDS011;1480;51.456;6.670;2023-02-28T10:31:52;3.03;;;2.30;;
2940;SDS011;1480;51.456;6.670;2023-02-28T10:34:18;2.20;;;1.70;;
2940;SDS011;1480;51.456;6.670;2023-02-28T10:36:45;3.83;;;1.90;;
2940;SDS011;1480;51.456;6.670;2023-02-28T10:42:03;4.23;;;2.40;;
2940;SDS011;1480;51.456;6.670;2023-02-28T10:44:30;3.83;;;1.93;;
2940;SDS011;1480;51.456;6.670;2023-02-28T10:46:57;2.50;;;1.77;;
2940;SDS011;1480;51.456;6.670;2023-02-28T10:49:24;2.77;;;1.97;;
2940;SDS011;1480;51.456;6.670;2023-02-28T10:51:53;3.77;;;1.77;;
2940;SDS011;1480;51.456;6.670;2023-02-28T10:54:22;3.77;;;1.90;;
2940;SDS011;1480;51.456;6.670;2023-02-28T10:59:44;3.73;;;2.30;;
2940;SDS011;1480;51.456;6.670;2023-02-28T11:04:56;4.00;;;2.80;;
2940;SDS011;1480;51.456;6.670;2023-02-28T11:07:23;3.27;;;2.20;;
2940;SDS011;1480;51.456;6.670;2023-02-28T11:09:53;3.13;;;2.03;;
2940;SDS011;1480;51.456;6.670;2023-02-28T11:12:23;4.27;;;2.27;;
2940;SDS011;1480;51.456;6.670;2023-02-28T11:14:54;3.63;;;2.00;;
2940;SDS011;1480;51.456;6.670;2023-02-28T11:17:23;5.23;;;2.00;;
2940;SDS011;1480;51.456;6.670;2023-02-28T11:19:51;4.07;;;2.10;;
2940;SDS011;1480;51.456;6.670;2023-02-28T11:22:20;2.70;;;2.00;;
2940;SDS011;1480;51.456;6.670;2023-02-28T11:24:50;3.60;;;2.70;;
2940;SDS011;1480;51.456;6.670;2023-02-28T11:27:45;3.97;;;2.00;;
2940;SDS011;1480;51.456;6.670;2023-02-28T11:30:24;3.37;;;2.03;;
2940;SDS011;1480;51.456;6.670;2023-02-28T11:32:52;4.23;;;1.87;;
2940;SDS011;1480;51.456;6.670;2023-02-28T11:35:21;3.13;;;2.30;;
2940;SDS011;1480;51.456;6.670;2023-02-28T11:37:50;4.73;;;2.47;;
2940;SDS011;1480;51.456;6.670;2023-02-28T11:40:17;2.40;;;1.80;;
2940;SDS011;1480;51.456;6.670;2023-02-28T11:42:52;3.70;;;2.30;;
2940;SDS011;1480;51.456;6.670;2023-02-28T11:45:37;5.20;;;2.13;;
2940;SDS011;1480;51.456;6.670;2023-02-28T11:48:12;2.33;;;1.70;;
2940;SDS011;1480;51.456;6.670;2023-02-28T11:50:45;4.53;;;2.23;;
2940;SDS011;1480;51.456;6.670;2023-02-28T11:53:21;5.10;;;2.00;;
2940;SDS011;1480;51.456;6.670;2023-02-28T11:55:52;7.93;;;2.40;;
2940;SDS011;1480;51.456;6.670;2023-02-28T11:58:26;6.73;;;1.90;;
2940;SDS011;1480;51.456;6.670;2023-02-28T12:01:14;2.37;;;1.63;;
2940;SDS011;1480;51.456;6.670;2023-02-28T12:04:03;3.13;;;1.83;;
2940;SDS011;1480;51.456;6.670;2023-02-28T12:06:38;4.20;;;2.50;;
2940;SDS011;1480;51.456;6.670;2023-02-28T12:09:12;3.70;;;2.10;;
2940;SDS011;1480;51.456;6.670;2023-02-28T12:11:48;2.30;;;1.90;;
2940;SDS011;1480;51.456;6.670;2023-02-28T12:17:13;2.50;;;2.00;;
2940;SDS011;1480;51.456;6.670;2023-02-28T12:19:48;3.90;;;2.00;;
2940;SDS011;1480;51.456;6.670;2023-02-28T12:22:23;3.10;;;2.00;;
2940;SDS011;1480;51.456;6.670;2023-02-28T12:27:48;2.43;;;2.23;;
2940;SDS011;1480;51.456;6.670;2023-02-28T12:30:18;3.30;;;1.87;;
2940;SDS011;1480;51.456;6.670;2023-02-28T12:32:48;4.43;;;2.47;;
2940;SDS011;1480;51.456;6.670;2023-02-28T12:35:16;3.67;;;2.37;;
2940;SDS011;1480;51.456;6.670;2023-02-28T12:37:45;3.10;;;1.90;;
2940;SDS011;1480;51.456;6.670;2023-02-28T12:40:14;4.93;;;2.37;;
2940;SDS011;1480;51.456;6.670;2023-02-28T12:42:43;4.00;;;2.53;;
2940;SDS011;1480;51.456;6.670;2023-02-28T12:45:13;2.27;;;1.90;;
2940;SDS011;1480;51.456;6.670;2023-02-28T12:47:45;2.60;;;2.20;;
2940;SDS011;1480;51.456;6.670;2023-02-28T12:50:14;1.90;;;1.70;;
2940;SDS011;1480;51.456;6.670;2023-02-28T12:52:47;3.80;;;2.10;;
2940;SDS011;1480;51.456;6.670;2023-02-28T12:55:19;5.20;;;2.60;;
2940;SDS011;1480;51.456;6.670;2023-02-28T12:57:49;3.90;;;2.43;;
2940;SDS011;1480;51.456;6.670;2023-02-28T13:00:23;5.00;;;2.00;;
2940;SDS011;1480;51.456;6.670;2023-02-28T13:02:57;3.63;;;2.60;;
2940;SDS011;1480;51.456;6.670;2023-02-28T13:05:54;4.47;;;2.87;;
2940;SDS011;1480;51.456;6.670;2023-02-28T13:11:27;3.33;;;2.50;;
2940;SDS011;1480;51.456;6.670;2023-02-28T13:13:57;3.10;;;2.80;;
2940;SDS011;1480;51.456;6.670;2023-02-28T13:16:25;3.70;;;2.60;;
2940;SDS011;1480;51.456;6.670;2023-02-28T13:18:53;3.40;;;2.40;;
2940;SDS011;1480;51.456;6.670;2023-02-28T13:21:41;4.90;;;3.17;;
2940;SDS011;1480;51.456;6.670;2023-02-28T13:24:10;4.13;;;2.90;;
2940;SDS011;1480;51.456;6.670;2023-02-28T13:29:41;2.70;;;2.20;;
2940;SDS011;1480;51.456;6.670;2023-02-28T13:44:20;3.53;;;2.80;;
2940;SDS011;1480;51.456;6.670;2023-02-28T13:49:49;9.13;;;3.27;;
2940;SDS011;1480;51.456;6.670;2023-02-28T13:52:18;3.90;;;2.70;;
2940;SDS011;1480;51.456;6.670;2023-02-28T13:54:54;3.97;;;3.43;;
2940;SDS011;1480;51.456;6.670;2023-02-28T13:57:26;5.40;;;3.23;;
2940;SDS011;1480;51.456;6.670;2023-02-28T14:00:02;4.60;;;3.00;;
2940;SDS011;1480;51.456;6.670;2023-02-28T14:02:52;7.80;;;2.60;;
2940;SDS011;1480;51.456;6.670;2023-02-28T14:05:41;4.27;;;2.90;;
2940;SDS011;1480;51.456;6.670;2023-02-28T14:08:11;3.07;;;2.77;;
2940;SDS011;1480;51.456;6.670;2023-02-28T14:10:44;3.70;;;2.80;;
2940;SDS011;1480;51.456;6.670;2023-02-28T14:13:14;4.87;;;3.30;;
2940;SDS011;1480;51.456;6.670;2023-02-28T14:15:56;2.83;;;2.50;;
2940;SDS011;1480;51.456;6.670;2023-02-28T14:18:24;5.00;;;4.00;;
2940;SDS011;1480;51.456;6.670;2023-02-28T14:20:55;3.53;;;3.23;;
2940;SDS011;1480;51.456;6.670;2023-02-28T14:23:30;5.37;;;3.30;;
2940;SDS011;1480;51.456;6.670;2023-02-28T14:26:03;4.83;;;3.20;;
2940;SDS011;1480;51.456;6.670;2023-02-28T14:28:43;3.50;;;2.97;;
2940;SDS011;1480;51.456;6.670;2023-02-28T14:31:17;5.97;;;2.93;;
2940;SDS011;1480;51.456;6.670;2023-02-28T14:33:54;5.50;;;3.00;;
2940;SDS011;1480;51.456;6.670;2023-02-28T14:36:26;4.63;;;2.70;;
2940;SDS011;1480;51.456;6.670;2023-02-28T14:38:54;9.93;;;3.43;;
2940;SDS011;1480;51.456;6.670;2023-02-28T14:41:28;8.43;;;2.90;;
2940;SDS011;1480;51.456;6.670;2023-02-28T14:43:58;3.60;;;3.00;;
2940;SDS011;1480;51.456;6.670;2023-02-28T14:46:26;4.00;;;3.20;;
2940;SDS011;1480;51.456;6.670;2023-02-28T14:48:56;4.90;;;3.50;;
2940;SDS011;1480;51.456;6.670;2023-02-28T14:51:23;3.20;;;2.23;;
2940;SDS011;1480;51.456;6.670;2023-02-28T14:53:51;4.30;;;3.20;;
2940;SDS011;1480;51.456;6.670;2023-02-28T14:56:19;3.10;;;2.80;;
2940;SDS011;1480;51.456;6.670;2023-02-28T14:58:53;4.00;;;2.93;;
2940;SDS011;1480;51.456;6.670;2023-02-28T15:01:21;4.50;;;3.30;;
2940;SDS011;1480;51.456;6.670;2023-02-28T15:03:56;4.90;;;2.80;;
2940;SDS011;1480;51.456;6.670;2023-02-28T15:06:24;5.13;;;3.03;;
2940;SDS011;1480;51.456;6.670;2023-02-28T15:09:06;4.80;;;3.03;;
2940;SDS011;1480;51.456;6.670;2023-02-28T15:11:38;4.53;;;3.10;;
2940;SDS011;1480;51.456;6.670;2023-02-28T15:14:05;5.00;;;3.17;;
2940;SDS011;1480;51.456;6.670;2023-02-28T15:16:32;3.70;;;3.30;;
2940;SDS011;1480;51.456;6.670;2023-02-28T15:19:02;5.07;;;2.80;;
2940;SDS011;1480;51.456;6.670;2023-02-28T15:21:32;4.20;;;2.90;;
2940;SDS011;1480;51.456;6.670;2023-02-28T15:24:01;3.73;;;2.80;;
2940;SDS011;1480;51.456;6.670;2023-02-28T15:26:31;4.53;;;3.43;;
2940;SDS011;1480;51.456;6.670;2023-02-28T15:29:01;4.00;;;3.10;;
2940;SDS011;1480;51.456;6.670;2023-02-28T15:31:31;4.40;;;2.60;;
2940;SDS011;1480;51.456;6.670;2023-02-28T15:34:02;4.40;;;3.40;;
2940;SDS011;1480;51.456;6.670;2023-02-28T15:36:30;4.43;;;2.93;;
2940;SDS011;1480;51.456;6.670;2023-02-28T15:39:02;6.23;;;3.77;;
2940;SDS011;1480;51.456;6.670;2023-02-28T15:41:30;6.50;;;3.83;;
2940;SDS011;1480;51.456;6.670;2023-02-28T15:44:17;3.70;;;3.00;;
2940;SDS011;1480;51.456;6.670;2023-02-28T15:46:57;4.10;;;3.00;;
2940;SDS011;1480;51.456;6.670;2023-02-28T15:49:26;2.93;;;2.60;;
2940;SDS011;1480;51.456;6.670;2023-02-28T15:51:55;5.73;;;3.20;;
2940;SDS011;1480;51.456;6.670;2023-02-28T15:54:25;6.60;;;3.20;;
2940;SDS011;1480;51.456;6.670;2023-02-28T15:56:55;4.93;;;3.57;;
2940;SDS011;1480;51.456;6.670;2023-02-28T15:59:32;5.07;;;3.80;;
2940;SDS011;1480;51.456;6.670;2023-02-28T16:02:03;5.27;;;3.50;;
2940;SDS011;1480;51.456;6.670;2023-02-28T16:07:26;3.77;;;2.90;;
2940;SDS011;1480;51.456;6.670;2023-02-28T16:09:53;3.93;;;2.90;;
2940;SDS011;1480;51.456;6.670;2023-02-28T16:12:20;6.73;;;3.07;;